sensor_id;sensor_type;location;lat;lon;timestamp;temperature;humidity
32787;DHT22;19139;49.372;8.580;2023-03-01T00:01:18;18.70;84.60
32787;DHT22;19139;49.372;8.580;2023-03-01T00:03:45;18.70;84.70
32787;DHT22;19139;49.372;8.580;2023-03-01T00:06:13;18.70;84.60
32787;DHT22;19139;49.372;8.580;2023-03-01T00:08:40;18.70;84.60
32787;DHT22;19139;49.372;8.580;2023-03-01T00:13:48;18.70;85.30
32787;DHT22;19139;49.372;8.580;2023-03-01T00:16:36;18.70;84.60
32787;DHT22;19139;49.372;8.580;2023-03-01T00:19:13;18.70;84.60
32787;DHT22;19139;49.372;8.580;2023-03-01T00:21:40;18.60;84.50
32787;DHT22;19139;49.372;8.580;2023-03-01T00:24:07;18.60;84.50
32787;DHT22;19139;49.372;8.580;2023-03-01T00:26:34;18.70;84.60
32787;DHT22;19139;49.372;8.580;2023-03-01T00:29:01;18.60;85.30
32787;DHT22;19139;49.372;8.580;2023-03-01T00:31:30;18.60;84.40
32787;DHT22;19139;49.372;8.580;2023-03-01T00:33:59;18.60;84.40
32787;DHT22;19139;49.372;8.580;2023-03-01T00:36:27;18.60;84.40
32787;DHT22;19139;49.372;8.580;2023-03-01T00:38:59;18.60;84.40
32787;DHT22;19139;49.372;8.580;2023-03-01T00:41:26;18.60;84.40
32787;DHT22;19139;49.372;8.580;2023-03-01T00:43:58;18.60;84.40
32787;DHT22;19139;49.372;8.580;2023-03-01T00:46:29;18.60;84.40
32787;DHT22;19139;49.372;8.580;2023-03-01T00:48:57;18.60;84.40
32787;DHT22;19139;49.372;8.580;2023-03-01T00:51:29;18.60;84.30
32787;DHT22;19139;49.372;8.580;2023-03-01T00:53:58;18.60;84.30
32787;DHT22;19139;49.372;8.580;2023-03-01T00:56:30;18.60;84.40
32787;DHT22;19139;49.372;8.580;2023-03-01T00:58:58;18.60;84.30
32787;DHT22;19139;49.372;8.580;2023-03-01T01:01:30;18.60;84.30
32787;DHT22;19139;49.372;8.580;2023-03-01T01:04:00;18.60;85.00
32787;DHT22;19139;49.372;8.580;2023-03-01T01:06:39;18.60;85.10
32787;DHT22;19139;49.372;8.580;2023-03-01T01:09:06;18.60;84.30
32787;DHT22;19139;49.372;8.580;2023-03-01T01:11:33;18.60;84.20
32787;DHT22;19139;49.372;8.580;2023-03-01T01:14:02;18.60;84.20
32787;DHT22;19139;49.372;8.580;2023-03-01T01:16:29;18.50;84.20
32787;DHT22;19139;49.372;8.580;2023-03-01T01:18:57;18.60;84.20
32787;DHT22;19139;49.372;8.580;2023-03-01T01:21:28;18.60;84.20
32787;DHT22;19139;49.372;8.580;2023-03-01T01:23:56;18.60;84.20
32787;DHT22;19139;49.372;8.580;2023-03-01T01:26:30;18.60;84.20
32787;DHT22;19139;49.372;8.580;2023-03-01T01:28:58;18.60;85.00
32787;DHT22;19139;49.372;8.580;2023-03-01T01:31:26;18.60;84.20
32787;DHT22;19139;49.372;8.580;2023-03-01T01:33:59;18.60;84.20
32787;DHT22;19139;49.372;8.580;2023-03-01T01:36:27;18.50;84.10
32787;DHT22;19139;49.372;8.580;2023-03-01T01:38:59;18.60;84.20
32787;DHT22;19139;49.372;8.580;2023-03-01T01:41:27;18.50;84.10
32787;DHT22;19139;49.372;8.580;2023-03-01T01:44:20;18.60;84.20
32787;DHT22;19139;49.372;8.580;2023-03-01T01:46:55;18.60;84.10
32787;DHT22;19139;49.372;8.580;2023-03-01T01:49:46;18.50;84.00
32787;DHT22;19139;49.372;8.580;2023-03-01T01:52:29;18.50;84.00
32787;DHT22;19139;49.372;8.580;2023-03-01T01:55:00;18.50;84.00
32787;DHT22;19139;49.372;8.580;2023-03-01T01:57:32;18.50;84.00
32787;DHT22;19139;49.372;8.580;2023-03-01T02:00:09;18.50;84.00
32787;DHT22;19139;49.372;8.580;2023-03-01T02:02:37;18.50;84.00
32787;DHT22;19139;49.372;8.580;2023-03-01T02:05:11;18.50;84.00
32787;DHT22;19139;49.372;8.580;2023-03-01T02:07:46;18.50;83.90
32787;DHT22;19139;49.372;8.580;2023-03-01T02:10:20;18.50;84.00
32787;DHT22;19139;49.372;8.580;2023-03-01T02:12:47;18.50;84.00
32787;DHT22;19139;49.372;8.580;2023-03-01T02:15:18;18.50;83.90
32787;DHT22;19139;49.372;8.580;2023-03-01T02:17:45;18.50;84.00
32787;DHT22;19139;49.372;8.580;2023-03-01T02:20:34;18.50;84.00
32787;DHT22;19139;49.372;8.580;2023-03-01T02:23:07;18.50;84.00
32787;DHT22;19139;49.372;8.580;2023-03-01T02:26:18;18.50;84.70
32787;DHT22;19139;49.372;8.580;2023-03-01T02:28:46;18.50;83.90
32787;DHT22;19139;49.372;8.580;2023-03-01T02:31:20;18.50;83.90
32787;DHT22;19139;49.372;8.580;2023-03-01T02:34:07;18.50;83.90
32787;DHT22;19139;49.372;8.580;2023-03-01T02:36:43;18.50;83.90
32787;DHT22;19139;49.372;8.580;2023-03-01T02:39:19;18.50;83.90
32787;DHT22;19139;49.372;8.580;2023-03-01T02:41:50;18.40;83.80
32787;DHT22;19139;49.372;8.580;2023-03-01T02:44:18;18.40;83.80
32787;DHT22;19139;49.372;8.580;2023-03-01T02:46:51;18.50;83.80
32787;DHT22;19139;49.372;8.580;2023-03-01T02:49:37;18.50;83.80
32787;DHT22;19139;49.372;8.580;2023-03-01T02:55:18;18.50;83.80
32787;DHT22;19139;49.372;8.580;2023-03-01T02:57:49;18.50;83.80
32787;DHT22;19139;49.372;8.580;2023-03-01T03:00:22;18.40;83.80
32787;DHT22;19139;49.372;8.580;2023-03-01T03:02:56;18.50;83.80
32787;DHT22;19139;49.372;8.580;2023-03-01T03:05:32;18.40;83.80
32787;DHT22;19139;49.372;8.580;2023-03-01T03:08:04;18.50;83.80
32787;DHT22;19139;49.372;8.580;2023-03-01T03:10:39;18.40;83.70
32787;DHT22;19139;49.372;8.580;2023-03-01T03:13:10;18.40;83.70
32787;DHT22;19139;49.372;8.580;2023-03-01T03:15:37;18.40;83.80
32787;DHT22;19139;49.372;8.580;2023-03-01T03:18:08;18.40;83.80
32787;DHT22;19139;49.372;8.580;2023-03-01T03:20:41;18.40;83.70
32787;DHT22;19139;49.372;8.580;2023-03-01T03:23:08;18.40;83.70
32787;DHT22;19139;49.372;8.580;2023-03-01T03:25:35;18.40;83.70
32787;DHT22;19139;49.372;8.580;2023-03-01T03:28:08;18.40;83.70
32787;DHT22;19139;49.372;8.580;2023-03-01T03:30:40;18.40;83.70
32787;DHT22;19139;49.372;8.580;2023-03-01T03:33:08;18.40;83.70
32787;DHT22;19139;49.372;8.580;2023-03-01T03:35:47;18.40;83.70
32787;DHT22;19139;49.372;8.580;2023-03-01T03:38:19;18.40;83.70
32787;DHT22;19139;49.372;8.580;2023-03-01T03:41:08;18.40;83.70
32787;DHT22;19139;49.372;8.580;2023-03-01T03:43:37;18.40;83.70
32787;DHT22;19139;49.372;8.580;2023-03-01T03:46:10;18.40;83.60
32787;DHT22;19139;49.372;8.580;2023-03-01T03:48:40;18.40;83.60
32787;DHT22;19139;49.372;8.580;2023-03-01T03:51:09;18.40;83.60
32787;DHT22;19139;49.372;8.580;2023-03-01T03:53:36;18.40;83.60
32787;DHT22;19139;49.372;8.580;2023-03-01T03:56:09;18.30;83.60
32787;DHT22;19139;49.372;8.580;2023-03-01T03:58:35;18.40;83.60
32787;DHT22;19139;49.372;8.580;2023-03-01T04:01:07;18.30;83.50
32787;DHT22;19139;49.372;8.580;2023-03-01T04:03:39;18.40;83.60
32787;DHT22;19139;49.372;8.580;2023-03-01T04:06:05;18.30;83.50
32787;DHT22;19139;49.372;8.580;2023-03-01T04:08:37;18.30;83.50
32787;DHT22;19139;49.372;8.580;2023-03-01T04:11:08;18.30;83.60
32787;DHT22;19139;49.372;8.580;2023-03-01T04:13:58;18.40;83.60
32787;DHT22;19139;49.372;8.580;2023-03-01T04:16:26;18.40;83.60
32787;DHT22;19139;49.372;8.580;2023-03-01T04:18:58;18.40;83.60
32787;DHT22;19139;49.372;8.580;2023-03-01T04:21:26;18.30;83.50
32787;DHT22;19139;49.372;8.580;2023-03-01T04:23:57;18.30;83.50
32787;DHT22;19139;49.372;8.580;2023-03-01T04:26:29;18.30;83.50
32787;DHT22;19139;49.372;8.580;2023-03-01T04:28:56;18.30;83.50
32787;DHT22;19139;49.372;8.580;2023-03-01T04:31:27;18.30;83.50
32787;DHT22;19139;49.372;8.580;2023-03-01T04:33:59;18.30;83.50
32787;DHT22;19139;49.372;8.580;2023-03-01T04:36:29;18.30;83.50
32787;DHT22;19139;49.372;8.580;2023-03-01T04:38:57;18.30;83.50
32787;DHT22;19139;49.372;8.580;2023-03-01T04:41:28;18.30;84.30
32787;DHT22;19139;49.372;8.580;2023-03-01T04:43:55;18.30;83.50
32787;DHT22;19139;49.372;8.580;2023-03-01T04:46:26;18.30;83.50
32787;DHT22;19139;49.372;8.580;2023-03-01T04:48:58;18.30;83.50
32787;DHT22;19139;49.372;8.580;2023-03-01T04:51:29;18.30;83.50
32787;DHT22;19139;49.372;8.580;2023-03-01T04:53:56;18.30;83.50
32787;DHT22;19139;49.372;8.580;2023-03-01T04:56:27;18.30;83.40
32787;DHT22;19139;49.372;8.580;2023-03-01T04:58:59;18.30;83.40
32787;DHT22;19139;49.372;8.580;2023-03-01T05:01:26;18.30;83.40
32787;DHT22;19139;49.372;8.580;2023-03-01T05:03:58;18.30;83.30
32787;DHT22;19139;49.372;8.580;2023-03-01T05:06:34;18.30;83.40
32787;DHT22;19139;49.372;8.580;2023-03-01T05:09:05;18.30;83.40
32787;DHT22;19139;49.372;8.580;2023-03-01T05:11:37;18.30;83.40
32787;DHT22;19139;49.372;8.580;2023-03-01T05:14:09;18.30;83.30
32787;DHT22;19139;49.372;8.580;2023-03-01T05:16:36;18.30;83.40
32787;DHT22;19139;49.372;8.580;2023-03-01T05:19:08;18.30;83.30
32787;DHT22;19139;49.372;8.580;2023-03-01T05:21:46;18.30;83.40
32787;DHT22;19139;49.372;8.580;2023-03-01T05:24:34;18.30;83.30
32787;DHT22;19139;49.372;8.580;2023-03-01T05:27:06;18.20;83.30
32787;DHT22;19139;49.372;8.580;2023-03-01T05:29:32;18.30;83.30
32787;DHT22;19139;49.372;8.580;2023-03-01T05:32:06;18.20;83.30
32787;DHT22;19139;49.372;8.580;2023-03-01T05:34:37;18.30;83.30
32787;DHT22;19139;49.372;8.580;2023-03-01T05:37:09;18.30;83.30
32787;DHT22;19139;49.372;8.580;2023-03-01T05:39:36;18.20;83.20
32787;DHT22;19139;49.372;8.580;2023-03-01T05:42:11;18.20;83.30
32787;DHT22;19139;49.372;8.580;2023-03-01T05:44:43;18.20;83.30
32787;DHT22;19139;49.372;8.580;2023-03-01T05:47:14;18.30;83.30
32787;DHT22;19139;49.372;8.580;2023-03-01T05:49:46;18.20;83.20
32787;DHT22;19139;49.372;8.580;2023-03-01T05:52:17;18.20;83.10
32787;DHT22;19139;49.372;8.580;2023-03-01T05:54:49;18.20;83.20
32787;DHT22;19139;49.372;8.580;2023-03-01T05:57:15;18.20;83.10
32787;DHT22;19139;49.372;8.580;2023-03-01T05:59:47;18.20;83.10
32787;DHT22;19139;49.372;8.580;2023-03-01T06:02:19;18.20;83.10
32787;DHT22;19139;49.372;8.580;2023-03-01T06:04:51;18.20;83.20
32787;DHT22;19139;49.372;8.580;2023-03-01T06:07:22;18.20;83.10
32787;DHT22;19139;49.372;8.580;2023-03-01T06:09:54;18.20;83.10
32787;DHT22;19139;49.372;8.580;2023-03-01T06:12:25;18.20;83.10
32787;DHT22;19139;49.372;8.580;2023-03-01T06:14:57;18.20;83.10
32787;DHT22;19139;49.372;8.580;2023-03-01T06:17:33;18.20;83.10
32787;DHT22;19139;49.372;8.580;2023-03-01T06:20:17;18.20;83.10
32787;DHT22;19139;49.372;8.580;2023-03-01T06:22:49;18.20;83.10
32787;DHT22;19139;49.372;8.580;2023-03-01T06:25:23;18.20;83.10
32787;DHT22;19139;49.372;8.580;2023-03-01T06:27:55;18.20;83.10
32787;DHT22;19139;49.372;8.580;2023-03-01T06:30:26;18.20;83.10
32787;DHT22;19139;49.372;8.580;2023-03-01T06:32:58;18.20;83.10
32787;DHT22;19139;49.372;8.580;2023-03-01T06:35:32;18.20;83.10
32787;DHT22;19139;49.372;8.580;2023-03-01T06:38:00;18.20;83.10
32787;DHT22;19139;49.372;8.580;2023-03-01T06:40:32;18.20;83.30
32787;DHT22;19139;49.372;8.580;2023-03-01T06:43:06;18.20;83.10
32787;DHT22;19139;49.372;8.580;2023-03-01T06:45:38;18.20;83.10
32787;DHT22;19139;49.372;8.580;2023-03-01T06:48:06;18.20;83.00
32787;DHT22;19139;49.372;8.580;2023-03-01T06:50:38;18.20;83.00
32787;DHT22;19139;49.372;8.580;2023-03-01T06:53:05;18.20;83.00
32787;DHT22;19139;49.372;8.580;2023-03-01T06:55:32;18.00;77.90
32787;DHT22;19139;49.372;8.580;2023-03-01T06:58:00;16.40;72.50
32787;DHT22;19139;49.372;8.580;2023-03-01T07:00:27;15.80;70.80
32787;DHT22;19139;49.372;8.580;2023-03-01T07:02:54;15.30;71.00
32787;DHT22;19139;49.372;8.580;2023-03-01T07:05:20;15.70;73.80
32787;DHT22;19139;49.372;8.580;2023-03-01T07:07:47;16.30;76.20
32787;DHT22;19139;49.372;8.580;2023-03-01T07:10:13;16.70;75.70
32787;DHT22;19139;49.372;8.580;2023-03-01T07:12:40;17.00;77.10
32787;DHT22;19139;49.372;8.580;2023-03-01T07:15:08;17.20;78.30
32787;DHT22;19139;49.372;8.580;2023-03-01T07:17:40;17.40;78.50
32787;DHT22;19139;49.372;8.580;2023-03-01T07:20:12;17.50;78.70
32787;DHT22;19139;49.372;8.580;2023-03-01T07:22:44;17.60;79.10
32787;DHT22;19139;49.372;8.580;2023-03-01T07:25:15;17.60;79.30
32787;DHT22;19139;49.372;8.580;2023-03-01T07:27:42;17.70;79.70
32787;DHT22;19139;49.372;8.580;2023-03-01T07:30:13;17.70;79.90
32787;DHT22;19139;49.372;8.580;2023-03-01T07:32:45;17.80;80.20
32787;DHT22;19139;49.372;8.580;2023-03-01T07:35:12;17.80;80.30
32787;DHT22;19139;49.372;8.580;2023-03-01T07:37:44;17.90;80.50
32787;DHT22;19139;49.372;8.580;2023-03-01T07:40:15;17.90;80.60
32787;DHT22;19139;49.372;8.580;2023-03-01T07:42:42;17.90;80.90
32787;DHT22;19139;49.372;8.580;2023-03-01T07:45:13;17.90;80.90
32787;DHT22;19139;49.372;8.580;2023-03-01T07:47:45;18.00;81.20
32787;DHT22;19139;49.372;8.580;2023-03-01T07:50:11;18.00;81.40
32787;DHT22;19139;49.372;8.580;2023-03-01T07:52:46;18.00;81.40
32787;DHT22;19139;49.372;8.580;2023-03-01T07:55:13;18.00;81.70
32787;DHT22;19139;49.372;8.580;2023-03-01T07:57:44;18.00;81.80
32787;DHT22;19139;49.372;8.580;2023-03-01T08:00:11;18.00;81.80
32787;DHT22;19139;49.372;8.580;2023-03-01T08:02:43;18.10;82.10
32787;DHT22;19139;49.372;8.580;2023-03-01T08:05:15;18.00;82.10
32787;DHT22;19139;49.372;8.580;2023-03-01T08:07:41;18.10;82.40
32787;DHT22;19139;49.372;8.580;2023-03-01T08:10:09;18.10;82.50
32787;DHT22;19139;49.372;8.580;2023-03-01T08:12:35;18.10;82.50
32787;DHT22;19139;49.372;8.580;2023-03-01T08:15:03;18.10;82.60
32787;DHT22;19139;49.372;8.580;2023-03-01T08:17:30;18.20;82.90
32787;DHT22;19139;49.372;8.580;2023-03-01T08:19:57;18.20;82.90
32787;DHT22;19139;49.372;8.580;2023-03-01T08:22:23;18.20;83.10
32787;DHT22;19139;49.372;8.580;2023-03-01T08:24:51;18.20;83.30
32787;DHT22;19139;49.372;8.580;2023-03-01T08:27:17;18.20;83.50
32787;DHT22;19139;49.372;8.580;2023-03-01T08:29:44;18.20;83.70
32787;DHT22;19139;49.372;8.580;2023-03-01T08:32:10;18.20;83.80
32787;DHT22;19139;49.372;8.580;2023-03-01T08:34:37;18.30;84.00
32787;DHT22;19139;49.372;8.580;2023-03-01T08:37:05;18.30;83.90
32787;DHT22;19139;49.372;8.580;2023-03-01T08:39:32;18.30;83.80
32787;DHT22;19139;49.372;8.580;2023-03-01T08:41:59;18.30;83.60
32787;DHT22;19139;49.372;8.580;2023-03-01T08:44:30;18.30;83.50
32787;DHT22;19139;49.372;8.580;2023-03-01T08:46:57;18.20;83.40
32787;DHT22;19139;49.372;8.580;2023-03-01T08:49:24;18.30;83.40
32787;DHT22;19139;49.372;8.580;2023-03-01T08:51:51;18.20;83.20
32787;DHT22;19139;49.372;8.580;2023-03-01T08:54:19;18.20;83.20
32787;DHT22;19139;49.372;8.580;2023-03-01T08:56:46;18.30;83.10
32787;DHT22;19139;49.372;8.580;2023-03-01T08:59:15;18.30;83.10
32787;DHT22;19139;49.372;8.580;2023-03-01T09:01:42;18.20;78.30
32787;DHT22;19139;49.372;8.580;2023-03-01T09:04:11;17.10;72.50
32787;DHT22;19139;49.372;8.580;2023-03-01T09:06:38;16.40;70.10
32787;DHT22;19139;49.372;8.580;2023-03-01T09:09:05;16.00;67.90
32787;DHT22;19139;49.372;8.580;2023-03-01T09:11:32;15.90;70.20
32787;DHT22;19139;49.372;8.580;2023-03-01T09:13:59;16.30;74.40
32787;DHT22;19139;49.372;8.580;2023-03-01T09:16:31;16.80;77.40
32787;DHT22;19139;49.372;8.580;2023-03-01T09:19:02;17.20;77.30
32787;DHT22;19139;49.372;8.580;2023-03-01T09:21:29;17.40;77.40
32787;DHT22;19139;49.372;8.580;2023-03-01T09:24:14;17.50;77.30
32787;DHT22;19139;49.372;8.580;2023-03-01T09:26:46;17.60;77.70
32787;DHT22;19139;49.372;8.580;2023-03-01T09:29:17;17.70;78.00
32787;DHT22;19139;49.372;8.580;2023-03-01T09:31:44;17.80;78.30
32787;DHT22;19139;49.372;8.580;2023-03-01T09:34:11;17.80;78.40
32787;DHT22;19139;49.372;8.580;2023-03-01T09:36:42;17.90;78.70
32787;DHT22;19139;49.372;8.580;2023-03-01T09:39:09;18.00;79.00
32787;DHT22;19139;49.372;8.580;2023-03-01T09:42:20;18.00;79.20
32787;DHT22;19139;49.372;8.580;2023-03-01T09:44:52;18.00;79.50
32787;DHT22;19139;49.372;8.580;2023-03-01T09:47:27;18.00;79.80
32787;DHT22;19139;49.372;8.580;2023-03-01T09:50:10;18.10;80.00
32787;DHT22;19139;49.372;8.580;2023-03-01T09:53:01;18.10;80.30
32787;DHT22;19139;49.372;8.580;2023-03-01T10:00:43;18.20;80.80
32787;DHT22;19139;49.372;8.580;2023-03-01T10:03:43;18.20;81.00
32787;DHT22;19139;49.372;8.580;2023-03-01T10:06:23;18.20;81.20
32787;DHT22;19139;49.372;8.580;2023-03-01T10:09:13;18.30;81.40
32787;DHT22;19139;49.372;8.580;2023-03-01T10:11:50;18.30;81.60
32787;DHT22;19139;49.372;8.580;2023-03-01T10:17:32;18.40;81.80
32787;DHT22;19139;49.372;8.580;2023-03-01T10:22:44;18.40;82.00
32787;DHT22;19139;49.372;8.580;2023-03-01T10:29:13;18.50;81.40
32787;DHT22;19139;49.372;8.580;2023-03-01T10:31:34;18.50;81.80
32787;DHT22;19139;49.372;8.580;2023-03-01T10:34:21;18.50;82.00
32787;DHT22;19139;49.372;8.580;2023-03-01T10:36:58;18.50;82.00
32787;DHT22;19139;49.372;8.580;2023-03-01T10:39:27;18.50;81.90
32787;DHT22;19139;49.372;8.580;2023-03-01T10:42:04;18.50;81.70
32787;DHT22;19139;49.372;8.580;2023-03-01T10:47:08;18.60;81.70
32787;DHT22;19139;49.372;8.580;2023-03-01T10:49:38;18.60;81.70
32787;DHT22;19139;49.372;8.580;2023-03-01T10:52:22;18.50;81.50
32787;DHT22;19139;49.372;8.580;2023-03-01T10:54:58;18.60;81.50
32787;DHT22;19139;49.372;8.580;2023-03-01T10:57:44;18.60;81.50
32787;DHT22;19139;49.372;8.580;2023-03-01T11:03:10;18.60;81.50
32787;DHT22;19139;49.372;8.580;2023-03-01T11:05:35;18.60;81.40
32787;DHT22;19139;49.372;8.580;2023-03-01T11:08:06;18.50;76.60
32787;DHT22;19139;49.372;8.580;2023-03-01T11:10:38;18.20;74.40
32787;DHT22;19139;49.372;8.580;2023-03-01T11:13:18;18.10;74.20
32787;DHT22;19139;49.372;8.580;2023-03-01T11:16:03;18.00;73.30
32787;DHT22;19139;49.372;8.580;2023-03-01T11:18:31;17.90;73.40
32787;DHT22;19139;49.372;8.580;2023-03-01T11:21:13;18.00;77.70
32787;DHT22;19139;49.372;8.580;2023-03-01T11:23:41;18.20;78.10
32787;DHT22;19139;49.372;8.580;2023-03-01T11:26:09;18.30;78.00
32787;DHT22;19139;49.372;8.580;2023-03-01T11:28:40;18.30;77.90
32787;DHT22;19139;49.372;8.580;2023-03-01T11:31:10;18.40;77.90
32787;DHT22;19139;49.372;8.580;2023-03-01T11:36:32;18.40;77.90
32787;DHT22;19139;49.372;8.580;2023-03-01T11:39:05;18.50;78.00
32787;DHT22;19139;49.372;8.580;2023-03-01T11:41:40;18.50;78.20
32787;DHT22;19139;49.372;8.580;2023-03-01T11:44:18;18.50;78.20
32787;DHT22;19139;49.372;8.580;2023-03-01T11:52:10;18.60;78.40
32787;DHT22;19139;49.372;8.580;2023-03-01T12:03:24;18.70;78.80
32787;DHT22;19139;49.372;8.580;2023-03-01T12:08:56;18.70;78.90
32787;DHT22;19139;49.372;8.580;2023-03-01T12:11:53;18.70;79.00
32787;DHT22;19139;49.372;8.580;2023-03-01T12:15:11;18.70;79.10
32787;DHT22;19139;49.372;8.580;2023-03-01T12:20:01;18.80;79.20
32787;DHT22;19139;49.372;8.580;2023-03-01T12:25:37;18.80;79.40
32787;DHT22;19139;49.372;8.580;2023-03-01T12:28:43;18.80;79.50
32787;DHT22;19139;49.372;8.580;2023-03-01T12:37:29;18.90;80.40
32787;DHT22;19139;49.372;8.580;2023-03-01T12:40:29;18.90;80.70
32787;DHT22;19139;49.372;8.580;2023-03-01T12:43:27;18.90;80.60
32787;DHT22;19139;49.372;8.580;2023-03-01T12:49:02;19.00;80.50
32787;DHT22;19139;49.372;8.580;2023-03-01T12:51:38;19.00;80.50
32787;DHT22;19139;49.372;8.580;2023-03-01T12:54:16;19.00;80.50
32787;DHT22;19139;49.372;8.580;2023-03-01T12:56:50;19.00;80.50
32787;DHT22;19139;49.372;8.580;2023-03-01T12:59:41;19.10;80.60
32787;DHT22;19139;49.372;8.580;2023-03-01T13:05:17;19.10;80.70
32787;DHT22;19139;49.372;8.580;2023-03-01T13:15:27;19.10;80.70
32787;DHT22;19139;49.372;8.580;2023-03-01T13:17:58;19.10;80.70
32787;DHT22;19139;49.372;8.580;2023-03-01T13:26:11;19.20;80.70
32787;DHT22;19139;49.372;8.580;2023-03-01T13:33:59;19.30;80.70
32787;DHT22;19139;49.372;8.580;2023-03-01T13:38:57;19.30;80.70
32787;DHT22;19139;49.372;8.580;2023-03-01T13:47:16;19.30;80.90
32787;DHT22;19139;49.372;8.580;2023-03-01T13:49:59;19.30;80.80
32787;DHT22;19139;49.372;8.580;2023-03-01T13:52:43;19.40;80.90
32787;DHT22;19139;49.372;8.580;2023-03-01T13:58:33;19.40;80.90
32787;DHT22;19139;49.372;8.580;2023-03-01T14:01:07;19.40;80.90
32787;DHT22;19139;49.372;8.580;2023-03-01T14:03:41;19.40;81.00
32787;DHT22;19139;49.372;8.580;2023-03-01T14:06:13;19.40;81.00
32787;DHT22;19139;49.372;8.580;2023-03-01T14:08:48;19.40;80.90
32787;DHT22;19139;49.372;8.580;2023-03-01T14:19:27;19.40;81.10
32787;DHT22;19139;49.372;8.580;2023-03-01T14:22:20;19.40;77.80
32787;DHT22;19139;49.372;8.580;2023-03-01T14:25:02;19.10;72.30
32787;DHT22;19139;49.372;8.580;2023-03-01T14:27:38;18.90;69.90
32787;DHT22;19139;49.372;8.580;2023-03-01T14:30:21;18.70;67.80
32787;DHT22;19139;49.372;8.580;2023-03-01T14:32:59;18.50;67.10
32787;DHT22;19139;49.372;8.580;2023-03-01T14:35:31;18.50;67.80
32787;DHT22;19139;49.372;8.580;2023-03-01T14:38:03;18.40;66.60
32787;DHT22;19139;49.372;8.580;2023-03-01T14:40:36;18.30;65.70
32787;DHT22;19139;49.372;8.580;2023-03-01T14:43:13;18.30;65.60
32787;DHT22;19139;49.372;8.580;2023-03-01T14:45:50;18.30;65.20
32787;DHT22;19139;49.372;8.580;2023-03-01T14:48:17;18.30;65.70
32787;DHT22;19139;49.372;8.580;2023-03-01T14:50:45;18.30;65.40
32787;DHT22;19139;49.372;8.580;2023-03-01T14:53:20;18.30;65.20
32787;DHT22;19139;49.372;8.580;2023-03-01T14:55:51;18.30;65.00
32787;DHT22;19139;49.372;8.580;2023-03-01T14:58:21;18.20;64.70
32787;DHT22;19139;49.372;8.580;2023-03-01T15:00:58;18.20;64.50
32787;DHT22;19139;49.372;8.580;2023-03-01T15:03:40;18.20;65.60
32787;DHT22;19139;49.372;8.580;2023-03-01T15:06:20;18.20;64.50
32787;DHT22;19139;49.372;8.580;2023-03-01T15:08:53;18.10;63.90
32787;DHT22;19139;49.372;8.580;2023-03-01T15:11:30;18.10;64.90
32787;DHT22;19139;49.372;8.580;2023-03-01T15:14:26;18.10;64.50
32787;DHT22;19139;49.372;8.580;2023-03-01T15:16:55;18.10;64.50
32787;DHT22;19139;49.372;8.580;2023-03-01T15:19:27;18.10;64.50
32787;DHT22;19139;49.372;8.580;2023-03-01T15:21:55;18.10;64.10
32787;DHT22;19139;49.372;8.580;2023-03-01T15:24:27;18.10;64.30
32787;DHT22;19139;49.372;8.580;2023-03-01T15:26:57;18.10;63.90
32787;DHT22;19139;49.372;8.580;2023-03-01T15:29:33;18.10;63.70
32787;DHT22;19139;49.372;8.580;2023-03-01T15:32:28;18.00;63.70
32787;DHT22;19139;49.372;8.580;2023-03-01T15:34:59;17.90;63.70
32787;DHT22;19139;49.372;8.580;2023-03-01T15:37:45;17.90;63.70
32787;DHT22;19139;49.372;8.580;2023-03-01T15:40:33;17.80;63.70
32787;DHT22;19139;49.372;8.580;2023-03-01T15:43:42;17.80;63.50
32787;DHT22;19139;49.372;8.580;2023-03-01T15:46:33;17.80;66.50
32787;DHT22;19139;49.372;8.580;2023-03-01T15:49:20;18.10;69.70
32787;DHT22;19139;49.372;8.580;2023-03-01T15:51:55;18.30;69.70
32787;DHT22;19139;49.372;8.580;2023-03-01T15:54:27;18.50;70.00
32787;DHT22;19139;49.372;8.580;2023-03-01T15:56:59;18.60;70.10
32787;DHT22;19139;49.372;8.580;2023-03-01T15:59:25;18.60;70.50
32787;DHT22;19139;49.372;8.580;2023-03-01T16:01:57;18.70;70.90
32787;DHT22;19139;49.372;8.580;2023-03-01T16:04:23;18.70;71.20
32787;DHT22;19139;49.372;8.580;2023-03-01T16:06:55;18.70;71.50
32787;DHT22;19139;49.372;8.580;2023-03-01T16:09:26;18.80;71.90
32787;DHT22;19139;49.372;8.580;2023-03-01T16:11:58;18.80;72.10
32787;DHT22;19139;49.372;8.580;2023-03-01T16:14:25;18.80;72.30
32787;DHT22;19139;49.372;8.580;2023-03-01T16:16:56;18.80;72.50
32787;DHT22;19139;49.372;8.580;2023-03-01T16:19:27;18.80;72.60
32787;DHT22;19139;49.372;8.580;2023-03-01T16:21:54;18.90;72.80
32787;DHT22;19139;49.372;8.580;2023-03-01T16:24:26;18.90;73.10
32787;DHT22;19139;49.372;8.580;2023-03-01T16:26:57;18.90;73.50
32787;DHT22;19139;49.372;8.580;2023-03-01T16:29:24;19.00;74.00
32787;DHT22;19139;49.372;8.580;2023-03-01T16:31:56;18.90;74.20
32787;DHT22;19139;49.372;8.580;2023-03-01T16:34:27;19.00;74.50
32787;DHT22;19139;49.372;8.580;2023-03-01T16:36:54;19.00;74.80
32787;DHT22;19139;49.372;8.580;2023-03-01T16:39:25;19.00;75.00
32787;DHT22;19139;49.372;8.580;2023-03-01T16:42:00;19.00;75.20
32787;DHT22;19139;49.372;8.580;2023-03-01T16:44:32;19.00;75.40
32787;DHT22;19139;49.372;8.580;2023-03-01T16:47:03;19.00;75.60
32787;DHT22;19139;49.372;8.580;2023-03-01T16:49:35;19.00;75.90
32787;DHT22;19139;49.372;8.580;2023-03-01T16:52:06;19.10;76.10
32787;DHT22;19139;49.372;8.580;2023-03-01T16:54:38;19.10;76.30
32787;DHT22;19139;49.372;8.580;2023-03-01T16:57:04;19.10;76.40
32787;DHT22;19139;49.372;8.580;2023-03-01T16:59:36;19.10;76.70
32787;DHT22;19139;49.372;8.580;2023-03-01T17:02:12;19.00;76.70
32787;DHT22;19139;49.372;8.580;2023-03-01T17:04:44;19.10;76.90
32787;DHT22;19139;49.372;8.580;2023-03-01T17:07:15;19.10;77.10
32787;DHT22;19139;49.372;8.580;2023-03-01T17:09:47;19.10;77.30
32787;DHT22;19139;49.372;8.580;2023-03-01T17:12:15;19.10;77.40
32787;DHT22;19139;49.372;8.580;2023-03-01T17:14:46;19.10;77.50
32787;DHT22;19139;49.372;8.580;2023-03-01T17:17:18;19.10;77.60
32787;DHT22;19139;49.372;8.580;2023-03-01T17:19:45;19.10;77.80
32787;DHT22;19139;49.372;8.580;2023-03-01T17:22:16;19.10;77.90
32787;DHT22;19139;49.372;8.580;2023-03-01T17:24:48;19.10;78.00
32787;DHT22;19139;49.372;8.580;2023-03-01T17:27:14;19.10;78.20
32787;DHT22;19139;49.372;8.580;2023-03-01T17:29:46;19.10;78.30
32787;DHT22;19139;49.372;8.580;2023-03-01T17:32:18;19.20;78.50
32787;DHT22;19139;49.372;8.580;2023-03-01T17:34:45;19.20;78.70
32787;DHT22;19139;49.372;8.580;2023-03-01T17:37:16;19.20;78.90
32787;DHT22;19139;49.372;8.580;2023-03-01T17:39:49;19.20;79.00
32787;DHT22;19139;49.372;8.580;2023-03-01T17:42:15;19.20;79.20
32787;DHT22;19139;49.372;8.580;2023-03-01T17:44:47;19.20;79.20
32787;DHT22;19139;49.372;8.580;2023-03-01T17:47:18;19.20;79.30